Accueil
METAR-TAF:

METAR-TAF

Aéroports :

Aéroport de Lorient-Bretagne-Sud - BAN Lann-Bihoué

Lorient, France

latitude: 47-46N, longitude: 003-27W, altitude: 52 m

Observation

Le bulletin a été fait il y a 35 minutes, à 23:00 UTC
Vent 4 kt de nord
Température 9°C
Humidité 93%
Pression 1032 hPa
Visibilité 10 km ou plus
pas de nuages en-dessous de 1500 mètres et pas de cumulonimbus.

METAR: LFRH 232300Z AUTO 36004KT CAVOK 09/08 Q1032 NOSIG

Heure: 01:35 (23:35 UTC)

Prévision

Le bulletin a été fait il y a 6 heures et 35 minutes, à 17:00 UTC
Prévision valable du 23 à 18 UTC au 24 à 18 UTC
Vent 5 kt de nord
Visibilité 10 km ou plus
pas de nuages en-dessous de 1500 mètres et pas de cumulonimbus.
Temporairement
du 24 à 02 UTC au 24 à 07 UTC
Visibilité: 3000 m
brume
Probabilité 30%
du 24 à 04 UTC au 24 à 06 UTC
Visibilité: 1000 m
bancs de brouillard

TAF: LFRH 231700Z 2318/2418 36005KT CAVOK TEMPO 2402/2407 3000 BR PROB30 2404/2406 1000 BCFG

Observations et prévisions météorologiques de plus de 4000 aéroports (messages METAR et TAF).

Les stations disponibles sont représentées par des disques jaunes et rouges sur la carte.

Passer la souris dessus pour voir le nom de la station.

Cliquer dessus pour voir les observations et prévisions météorologiques.

Pour changer de carte: cliquez sur les boutons verts avec une croix noire pour zoomer, sur le bouton vert avec un tiret pour effectuer un zoom arrière, ou sur les flèches vertes pour les cartes adjacentes.


METAR-TAF: